createdAt,value
2019-03-23T00:00:46.802Z,18.53
2019-03-23T00:03:14.152Z,18.48
2019-03-23T00:05:41.386Z,18.39
2019-03-23T00:08:08.287Z,18.36
2019-03-23T00:10:35.589Z,18.34
2019-03-23T00:13:02.498Z,18.34
2019-03-23T00:15:29.468Z,18.33
2019-03-23T00:17:56.747Z,18.38
2019-03-23T00:20:24.099Z,18.38
2019-03-23T00:22:52.112Z,18.27
2019-03-23T00:25:19.436Z,18.18
2019-03-23T00:27:46.387Z,18.15
2019-03-23T00:30:13.280Z,18.13
2019-03-23T00:32:40.233Z,18.16
2019-03-23T00:35:07.106Z,18.14
2019-03-23T00:37:35.285Z,18.11
2019-03-23T00:40:02.252Z,18.08
2019-03-23T00:42:29.583Z,18.05
2019-03-23T00:44:56.571Z,17.97
2019-03-23T00:47:23.861Z,17.93
2019-03-23T00:49:50.758Z,17.92
2019-03-23T00:52:17.726Z,17.89
2019-03-23T00:54:44.628Z,17.90
2019-03-23T00:57:11.512Z,17.92
2019-03-23T00:59:38.719Z,17.90
2019-03-23T01:02:05.675Z,17.89
2019-03-23T01:04:33.006Z,17.89
2019-03-23T01:06:59.961Z,17.85
2019-03-23T01:09:27.208Z,17.78
2019-03-23T01:11:54.073Z,17.69
2019-03-23T01:14:20.966Z,17.65
2019-03-23T01:16:48.245Z,17.66
2019-03-23T01:19:15.185Z,17.66
2019-03-23T01:21:42.450Z,17.65
2019-03-23T01:24:09.432Z,17.62
2019-03-23T01:26:36.373Z,17.63
2019-03-23T01:29:04.440Z,17.63
2019-03-23T01:31:31.324Z,17.56
2019-03-23T01:33:58.612Z,17.56
2019-03-23T01:36:25.868Z,17.55
2019-03-23T01:38:52.767Z,17.49
2019-03-23T01:41:19.704Z,17.49
2019-03-23T01:43:46.889Z,17.45
2019-03-23T01:46:13.782Z,17.31
2019-03-23T01:48:41.135Z,17.25
2019-03-23T01:51:08.084Z,17.21
2019-03-23T01:53:35.299Z,17.17
2019-03-23T01:56:02.546Z,17.10
2019-03-23T01:58:29.421Z,17.06
2019-03-23T02:00:56.752Z,17.04
2019-03-23T02:03:23.775Z,17.03
2019-03-23T02:05:51.054Z,17.01
2019-03-23T02:08:18.313Z,16.99
2019-03-23T02:10:45.216Z,17.02
2019-03-23T02:13:12.506Z,17.04
2019-03-23T02:15:39.756Z,17.03
2019-03-23T02:18:06.723Z,16.99
2019-03-23T02:20:33.949Z,16.93
2019-03-23T02:23:01.101Z,16.88
2019-03-23T02:25:28.017Z,16.84
2019-03-23T02:27:55.308Z,16.79
2019-03-23T02:30:22.560Z,16.79
2019-03-23T02:32:49.500Z,16.78
2019-03-23T02:35:16.684Z,16.81
2019-03-23T02:37:43.663Z,16.81
2019-03-23T02:40:10.588Z,16.81
2019-03-23T02:42:37.485Z,16.80
2019-03-23T02:45:04.421Z,16.77
2019-03-23T02:47:31.301Z,16.75
2019-03-23T02:49:58.208Z,16.69
2019-03-23T02:52:25.185Z,16.65
2019-03-23T02:54:52.168Z,16.65
2019-03-23T02:57:19.494Z,16.64
2019-03-23T02:59:47.494Z,16.63
2019-03-23T03:02:14.789Z,16.60
2019-03-23T03:04:41.700Z,16.60
2019-03-23T03:07:08.677Z,16.59
2019-03-23T03:09:35.615Z,16.63
2019-03-23T03:12:02.528Z,16.64
2019-03-23T03:14:29.826Z,16.63
2019-03-23T03:16:56.737Z,16.67
2019-03-23T03:19:24.038Z,16.73
2019-03-23T03:21:51.303Z,16.82
2019-03-23T03:24:18.550Z,16.85
2019-03-23T03:26:45.516Z,16.90
2019-03-23T03:29:12.423Z,16.92
2019-03-23T03:31:39.397Z,16.96
2019-03-23T03:34:06.361Z,16.96
2019-03-23T03:36:33.328Z,16.91
2019-03-23T03:39:00.615Z,16.88
2019-03-23T03:41:29.126Z,16.91
2019-03-23T03:43:56.088Z,16.95
2019-03-23T03:46:23.047Z,16.98
2019-03-23T03:48:50.001Z,16.95
2019-03-23T03:51:16.943Z,16.87
2019-03-23T03:53:44.131Z,16.81
2019-03-23T03:56:11.006Z,16.85
2019-03-23T03:58:37.946Z,16.82
2019-03-23T04:01:05.181Z,16.71
2019-03-23T04:03:32.140Z,16.68
2019-03-23T04:05:59.478Z,16.69
2019-03-23T04:08:26.394Z,16.66
2019-03-23T04:10:53.691Z,16.64
2019-03-23T04:13:20.652Z,16.62
2019-03-23T04:15:47.553Z,16.60
2019-03-23T04:18:14.517Z,16.58
2019-03-23T04:20:41.428Z,16.58
2019-03-23T04:23:08.412Z,16.59
2019-03-23T04:25:35.361Z,16.59
2019-03-23T04:28:02.370Z,16.59
2019-03-23T04:30:29.340Z,16.60
2019-03-23T04:32:56.290Z,16.62
2019-03-23T04:35:23.268Z,16.65
2019-03-23T04:37:50.245Z,16.66
2019-03-23T04:40:17.536Z,16.65
2019-03-23T04:42:44.780Z,16.67
2019-03-23T04:45:11.730Z,16.72
2019-03-23T04:47:38.656Z,16.71
2019-03-23T04:50:05.553Z,16.68
2019-03-23T04:52:32.504Z,16.68
2019-03-23T04:54:59.482Z,16.63
2019-03-23T04:57:26.500Z,16.61
2019-03-23T04:59:53.380Z,16.64
2019-03-23T05:02:20.250Z,16.60
2019-03-23T05:04:47.394Z,16.58
2019-03-23T05:07:14.552Z,16.51
2019-03-23T05:09:41.469Z,16.50
2019-03-23T05:12:08.436Z,16.50
2019-03-23T05:14:35.416Z,16.47
2019-03-23T05:17:02.644Z,16.48
2019-03-23T05:19:29.526Z,16.44
2019-03-23T05:21:56.743Z,16.40
2019-03-23T05:24:23.717Z,16.34
2019-03-23T05:26:50.612Z,16.32
2019-03-23T05:29:19.037Z,16.36
2019-03-23T05:31:45.901Z,16.34
2019-03-23T05:34:12.800Z,16.32
2019-03-23T05:36:39.691Z,16.30
2019-03-23T05:39:06.673Z,16.34
2019-03-23T05:41:34.653Z,16.38
2019-03-23T05:44:01.909Z,16.43
2019-03-23T05:46:28.878Z,16.44
2019-03-23T05:48:55.822Z,16.49
2019-03-23T05:51:23.173Z,16.55
2019-03-23T05:53:51.078Z,16.65
2019-03-23T05:56:18.993Z,16.79
2019-03-23T05:58:45.894Z,17.00
2019-03-23T06:01:12.844Z,17.19
2019-03-23T06:03:40.042Z,17.36
2019-03-23T06:06:06.925Z,17.52
2019-03-23T06:08:34.251Z,17.69
2019-03-23T06:11:02.297Z,17.81
2019-03-23T06:13:30.578Z,17.96
2019-03-23T06:15:57.586Z,18.14
2019-03-23T06:18:24.893Z,18.26
2019-03-23T06:20:52.126Z,18.44
2019-03-23T06:23:19.278Z,18.62
2019-03-23T06:25:46.550Z,18.83
2019-03-23T06:28:14.417Z,19.03
2019-03-23T06:30:41.401Z,19.18
2019-03-23T06:33:08.352Z,19.32
2019-03-23T06:35:35.306Z,19.44
2019-03-23T06:38:02.268Z,19.53
2019-03-23T06:40:29.173Z,19.64
2019-03-23T06:42:59.817Z,19.75
2019-03-23T06:45:24.664Z,19.86
2019-03-23T06:47:51.615Z,19.95
2019-03-23T06:50:18.989Z,20.08
2019-03-23T06:52:45.871Z,20.20
2019-03-23T06:55:13.217Z,20.35
2019-03-23T06:57:40.191Z,20.47
2019-03-23T07:00:07.574Z,20.61
2019-03-23T07:02:34.938Z,20.77
2019-03-23T07:05:01.893Z,20.95
2019-03-23T07:07:29.149Z,21.11
2019-03-23T07:09:56.388Z,21.25
2019-03-23T07:12:23.634Z,21.43
2019-03-23T07:14:50.540Z,21.61
2019-03-23T07:17:17.489Z,21.76
2019-03-23T07:19:44.681Z,21.98
2019-03-23T07:22:11.684Z,22.19
2019-03-23T07:24:38.644Z,22.39
2019-03-23T07:27:05.570Z,22.58
2019-03-23T07:29:32.538Z,22.73
2019-03-23T07:32:05.718Z,22.92
2019-03-23T07:34:28.611Z,23.13
2019-03-23T07:36:55.968Z,23.35
2019-03-23T07:39:28.004Z,23.60
2019-03-23T07:41:51.499Z,23.89
2019-03-23T07:44:18.862Z,24.19
2019-03-23T07:46:45.813Z,24.45
2019-03-23T07:49:12.969Z,24.74
2019-03-23T07:51:39.876Z,25.04
2019-03-23T07:54:06.846Z,25.21
2019-03-23T07:56:33.733Z,25.35
2019-03-23T07:59:01.033Z,25.51
2019-03-23T08:01:28.031Z,25.60
2019-03-23T08:03:54.905Z,25.57
2019-03-23T08:06:22.815Z,25.54
2019-03-23T08:08:49.715Z,25.44
2019-03-23T08:11:16.624Z,25.34
2019-03-23T08:13:44.593Z,25.23
2019-03-23T08:16:11.909Z,25.04
2019-03-23T08:18:39.146Z,24.83
2019-03-23T08:21:06.299Z,24.57
2019-03-23T08:23:33.564Z,24.39
2019-03-23T08:26:00.804Z,24.28
2019-03-23T08:28:27.713Z,24.18
2019-03-23T08:30:54.680Z,24.09
2019-03-23T08:33:21.622Z,24.02
2019-03-23T08:35:48.785Z,23.97
2019-03-23T08:38:15.739Z,24.02
2019-03-23T08:40:42.727Z,24.03
2019-03-23T08:43:10.105Z,24.03
2019-03-23T08:45:36.982Z,24.08
2019-03-23T08:48:03.926Z,24.05
2019-03-23T08:50:32.573Z,24.09
2019-03-23T08:52:59.659Z,24.15
2019-03-23T08:55:27.044Z,24.18
2019-03-23T08:57:53.948Z,24.18
2019-03-23T09:00:21.372Z,24.19
2019-03-23T09:02:48.320Z,24.21
2019-03-23T09:05:15.628Z,24.21
2019-03-23T09:07:44.005Z,24.23
2019-03-23T09:10:10.986Z,24.24
2019-03-23T09:12:37.947Z,24.26
2019-03-23T09:15:05.195Z,24.28
2019-03-23T09:17:32.118Z,24.30
2019-03-23T09:19:59.082Z,24.32
2019-03-23T09:22:26.024Z,24.34
2019-03-23T09:24:57.121Z,24.35
2019-03-23T09:27:21.811Z,24.37
2019-03-23T09:29:49.080Z,24.38
2019-03-23T09:32:16.329Z,24.40
2019-03-23T09:34:43.294Z,24.42
2019-03-23T09:37:10.257Z,24.45
2019-03-23T09:39:37.128Z,24.46
2019-03-23T09:42:04.004Z,24.47
2019-03-23T09:44:30.969Z,24.48
2019-03-23T09:46:57.925Z,24.50
2019-03-23T09:49:24.886Z,24.50
2019-03-23T09:51:52.193Z,24.51
2019-03-23T09:54:19.072Z,24.51
2019-03-23T09:56:45.962Z,24.52
2019-03-23T09:59:12.918Z,24.50
2019-03-23T10:01:39.865Z,24.49
2019-03-23T10:04:06.735Z,24.50
2019-03-23T10:06:33.674Z,24.50
2019-03-23T10:09:00.915Z,24.51
2019-03-23T10:11:29.712Z,24.51
2019-03-23T10:13:56.702Z,24.50
2019-03-23T10:16:23.916Z,24.50
2019-03-23T10:18:50.996Z,24.50
2019-03-23T10:21:17.936Z,24.50
2019-03-23T10:23:44.834Z,24.49
2019-03-23T10:26:11.700Z,24.49
2019-03-23T10:28:38.581Z,24.50
2019-03-23T10:31:05.785Z,24.49
2019-03-23T10:33:32.672Z,24.50
2019-03-23T10:36:00.866Z,24.50
2019-03-23T10:38:27.766Z,24.50
2019-03-23T10:40:54.650Z,24.48
2019-03-23T10:43:21.634Z,24.49
2019-03-23T10:45:48.557Z,24.49
2019-03-23T10:48:15.869Z,24.47
2019-03-23T10:50:43.086Z,24.46
2019-03-23T10:53:10.235Z,24.43
2019-03-23T10:55:37.132Z,24.43
2019-03-23T10:58:04.545Z,24.46
2019-03-23T11:00:31.790Z,24.46
2019-03-23T11:02:58.669Z,24.48
2019-03-23T11:05:25.541Z,24.49
2019-03-23T11:07:52.421Z,24.51
2019-03-23T11:10:20.729Z,24.52
2019-03-23T11:12:48.774Z,24.51
2019-03-23T11:15:16.030Z,24.51
2019-03-23T11:17:42.933Z,24.52
2019-03-23T11:20:10.256Z,24.54
2019-03-23T11:22:37.592Z,24.55
2019-03-23T11:25:04.594Z,24.54
2019-03-23T11:27:31.585Z,24.53
2019-03-23T11:29:58.605Z,24.54
2019-03-23T11:32:25.531Z,24.55
2019-03-23T11:34:52.866Z,24.55
2019-03-23T11:37:19.855Z,24.56
2019-03-23T11:39:47.249Z,24.56
2019-03-23T11:42:14.497Z,24.56
2019-03-23T11:44:41.422Z,24.58
2019-03-23T11:47:08.342Z,24.58
2019-03-23T11:49:35.338Z,24.58
2019-03-23T11:52:02.313Z,24.59
2019-03-23T11:54:29.657Z,24.60
2019-03-23T11:56:56.859Z,24.62
2019-03-23T11:59:23.764Z,24.60
2019-03-23T12:01:52.034Z,24.60
2019-03-23T12:04:19.672Z,24.60
2019-03-23T12:06:46.639Z,24.61
2019-03-23T12:09:13.515Z,24.60
2019-03-23T12:11:40.450Z,24.60
2019-03-23T12:14:07.335Z,24.62
2019-03-23T12:16:34.300Z,24.62
2019-03-23T12:19:01.542Z,24.62
2019-03-23T12:21:28.413Z,24.62
2019-03-23T12:23:55.623Z,24.62
2019-03-23T12:26:22.770Z,24.62
2019-03-23T12:28:49.675Z,24.64
2019-03-23T12:31:16.666Z,24.65
2019-03-23T12:33:43.615Z,24.65
2019-03-23T12:36:10.864Z,24.65
2019-03-23T12:38:37.763Z,24.65
2019-03-23T12:41:14.248Z,24.67
2019-03-23T12:43:33.863Z,24.67
2019-03-23T12:46:00.820Z,24.67
2019-03-23T12:48:28.830Z,24.68
2019-03-23T12:50:55.709Z,24.67
2019-03-23T12:53:22.596Z,24.68
2019-03-23T12:55:49.511Z,24.68
2019-03-23T12:58:16.458Z,24.69
2019-03-23T13:00:43.485Z,24.70
2019-03-23T13:03:10.353Z,24.71
2019-03-23T13:05:37.240Z,24.73
2019-03-23T13:08:04.136Z,24.73
2019-03-23T13:10:31.094Z,24.73
2019-03-23T13:12:58.483Z,24.74
2019-03-23T13:15:25.495Z,24.74
2019-03-23T13:17:52.480Z,24.74
2019-03-23T13:20:19.560Z,24.74
2019-03-23T13:22:46.934Z,24.74
2019-03-23T13:25:16.848Z,24.76
2019-03-23T13:27:46.166Z,24.77
2019-03-23T13:32:41.504Z,24.77
2019-03-23T13:35:08.837Z,24.77
2019-03-23T13:37:35.737Z,24.79
2019-03-23T13:40:02.814Z,24.79
2019-03-23T13:42:30.606Z,24.80
2019-03-23T13:44:58.128Z,24.79
2019-03-23T13:47:25.515Z,24.80
2019-03-23T13:49:52.467Z,24.81
2019-03-23T13:52:19.951Z,24.82
2019-03-23T13:54:47.152Z,24.83
2019-03-23T13:57:14.343Z,24.85
2019-03-23T13:59:41.276Z,24.85
2019-03-23T14:02:08.169Z,24.85
2019-03-23T14:04:36.452Z,24.85
2019-03-23T14:07:03.709Z,24.86
2019-03-23T14:09:31.150Z,24.87
2019-03-23T14:11:58.722Z,24.87
2019-03-23T14:14:26.350Z,24.86
2019-03-23T14:16:54.037Z,24.86
2019-03-23T14:19:20.985Z,24.87
2019-03-23T14:21:50.961Z,24.87
2019-03-23T14:24:17.829Z,24.86
2019-03-23T14:26:45.060Z,24.87
2019-03-23T14:29:12.024Z,24.89
2019-03-23T14:31:38.961Z,24.87
2019-03-23T14:34:05.854Z,24.88
2019-03-23T14:36:33.041Z,24.90
2019-03-23T14:39:00.273Z,24.91
2019-03-23T14:41:27.632Z,24.90
2019-03-23T14:43:56.238Z,24.89
2019-03-23T14:46:23.263Z,24.89
2019-03-23T14:48:50.280Z,24.90
2019-03-23T14:51:17.227Z,24.89
2019-03-23T14:53:44.203Z,24.89
2019-03-23T14:56:11.158Z,24.89
2019-03-23T14:58:38.489Z,24.88
2019-03-23T15:01:05.716Z,24.89
2019-03-23T15:03:33.044Z,24.88
2019-03-23T15:06:00.464Z,24.86
2019-03-23T15:08:27.490Z,24.87
2019-03-23T15:10:54.778Z,24.86
2019-03-23T15:13:21.734Z,24.88
2019-03-23T15:15:49.070Z,24.86
2019-03-23T15:18:16.352Z,24.85
2019-03-23T15:20:43.353Z,24.86
2019-03-23T15:23:10.451Z,24.87
2019-03-23T15:25:39.454Z,24.86
2019-03-23T15:28:05.997Z,24.82
2019-03-23T15:30:33.394Z,24.80
2019-03-23T15:33:00.637Z,24.79
2019-03-23T15:35:27.516Z,24.79
2019-03-23T15:37:54.514Z,24.79
2019-03-23T15:40:21.533Z,24.79
2019-03-23T15:42:48.430Z,24.79
2019-03-23T15:45:15.297Z,24.78
2019-03-23T15:47:42.221Z,24.77
2019-03-23T15:50:09.490Z,24.76
2019-03-23T15:52:36.724Z,24.76
2019-03-23T15:55:03.609Z,24.74
2019-03-23T15:57:31.564Z,24.72
2019-03-23T15:59:58.498Z,24.72
2019-03-23T16:02:25.741Z,24.74
2019-03-23T16:04:52.677Z,24.74
2019-03-23T16:09:48.113Z,24.74
2019-03-23T16:12:15.131Z,24.71
2019-03-23T16:14:42.323Z,24.70
2019-03-23T16:17:09.892Z,24.70
2019-03-23T16:19:40.235Z,24.70
2019-03-23T16:22:07.620Z,24.71
2019-03-23T16:24:35.633Z,24.71
2019-03-23T16:27:02.517Z,24.71
2019-03-23T16:29:29.774Z,24.72
2019-03-23T16:31:56.994Z,24.73
2019-03-23T16:34:23.937Z,24.73
2019-03-23T16:36:51.964Z,24.72
2019-03-23T16:39:18.853Z,24.70
2019-03-23T16:41:45.815Z,24.70
2019-03-23T16:44:13.028Z,24.68
2019-03-23T16:46:39.977Z,24.66
2019-03-23T16:49:07.341Z,24.69
2019-03-23T16:51:34.249Z,24.68
2019-03-23T16:54:03.593Z,24.68
2019-03-23T16:56:30.324Z,24.69
2019-03-23T16:58:57.659Z,24.69
2019-03-23T17:01:24.690Z,24.66
2019-03-23T17:03:52.668Z,24.64
2019-03-23T17:06:19.875Z,24.65
2019-03-23T17:08:48.826Z,24.62
2019-03-23T17:11:16.064Z,24.58
2019-03-23T17:13:43.418Z,24.58
2019-03-23T17:16:10.291Z,24.58
2019-03-23T17:18:37.573Z,24.58
2019-03-23T17:21:08.261Z,24.55
2019-03-23T17:23:35.196Z,24.52
2019-03-23T17:26:02.086Z,24.49
2019-03-23T17:28:29.417Z,24.50
2019-03-23T17:30:56.333Z,24.45
2019-03-23T17:33:23.363Z,24.36
2019-03-23T17:35:50.291Z,24.31
2019-03-23T17:38:17.909Z,24.26
2019-03-23T17:40:45.475Z,24.23
2019-03-23T17:43:16.931Z,24.19
2019-03-23T17:45:44.013Z,24.19
2019-03-23T17:48:11.856Z,24.18
2019-03-23T17:50:46.852Z,24.16
2019-03-23T17:53:13.964Z,24.08
2019-03-23T17:55:41.019Z,23.90
2019-03-23T17:58:07.992Z,23.86
2019-03-23T18:00:35.696Z,23.84
2019-03-23T18:03:02.947Z,23.77
2019-03-23T18:05:29.889Z,23.61
2019-03-23T18:07:56.937Z,23.52
2019-03-23T18:10:24.312Z,23.51
2019-03-23T18:12:51.269Z,23.50
2019-03-23T18:15:18.592Z,23.42
2019-03-23T18:17:45.585Z,23.33
2019-03-23T18:20:12.797Z,23.30
2019-03-23T18:22:39.775Z,23.31
2019-03-23T18:25:06.995Z,23.27
2019-03-23T18:27:34.382Z,23.27
2019-03-23T18:30:01.595Z,23.28
2019-03-23T18:32:30.498Z,23.30
2019-03-23T18:34:57.745Z,23.28
2019-03-23T18:37:24.989Z,23.32
2019-03-23T18:39:52.240Z,23.28
2019-03-23T18:42:19.508Z,23.27
2019-03-23T18:44:46.443Z,23.27
2019-03-23T18:47:13.590Z,23.26
2019-03-23T18:49:40.512Z,23.27
2019-03-23T18:52:08.828Z,23.23
2019-03-23T18:54:35.810Z,23.21
2019-03-23T18:57:03.240Z,23.22
2019-03-23T18:59:30.196Z,23.23
2019-03-23T19:01:57.068Z,23.20
2019-03-23T19:04:24.524Z,23.17
2019-03-23T19:06:51.832Z,23.11
2019-03-23T19:09:18.778Z,23.07
2019-03-23T19:11:46.022Z,23.07
2019-03-23T19:14:12.970Z,23.05
2019-03-23T19:16:41.157Z,23.03
2019-03-23T19:19:08.438Z,22.97
2019-03-23T19:21:35.411Z,22.94
2019-03-23T19:24:02.361Z,22.91
2019-03-23T19:26:29.762Z,22.91
2019-03-23T19:28:56.814Z,22.91
2019-03-23T19:31:24.271Z,22.93
2019-03-23T19:33:51.922Z,22.96
2019-03-23T19:36:19.308Z,22.88
2019-03-23T19:38:46.299Z,22.83
2019-03-23T19:41:13.253Z,22.85
2019-03-23T19:43:48.234Z,22.85
2019-03-23T19:46:09.248Z,22.84
2019-03-23T19:48:36.446Z,22.77
2019-03-23T19:51:03.879Z,22.56
2019-03-23T19:53:30.999Z,22.33
2019-03-23T19:55:57.862Z,22.14
2019-03-23T19:58:24.830Z,22.00
2019-03-23T20:00:51.784Z,21.90
2019-03-23T20:03:19.283Z,21.81
2019-03-23T20:05:46.857Z,21.71
2019-03-23T20:08:14.051Z,21.62
2019-03-23T20:10:41.103Z,21.55
2019-03-23T20:13:08.045Z,21.50
2019-03-23T20:15:35.011Z,21.49
2019-03-23T20:18:02.370Z,21.47
2019-03-23T20:20:29.321Z,21.42
2019-03-23T20:22:56.282Z,21.35
2019-03-23T20:25:23.345Z,21.32
2019-03-23T20:27:50.297Z,21.31
2019-03-23T20:30:17.601Z,21.26
2019-03-23T20:32:44.611Z,21.17
2019-03-23T20:35:11.591Z,21.15
2019-03-23T20:37:38.717Z,21.08
2019-03-23T20:40:05.681Z,21.02
2019-03-23T20:42:32.967Z,21.00
2019-03-23T20:45:00.323Z,20.99
2019-03-23T20:47:27.537Z,20.97
2019-03-23T20:49:54.443Z,20.96
2019-03-23T20:52:21.656Z,20.88
2019-03-23T20:54:48.641Z,20.84
2019-03-23T20:57:23.817Z,20.74
2019-03-23T20:59:45.271Z,20.65
2019-03-23T21:02:12.194Z,20.55
2019-03-23T21:04:39.655Z,20.49
2019-03-23T21:07:06.636Z,20.46
2019-03-23T21:09:33.961Z,20.41
2019-03-23T21:12:01.000Z,20.36
2019-03-23T21:14:28.286Z,20.32
2019-03-23T21:16:55.294Z,20.31
2019-03-23T21:19:22.220Z,20.30
2019-03-23T21:21:49.289Z,20.26
2019-03-23T21:24:16.263Z,20.21
2019-03-23T21:26:44.276Z,20.14
2019-03-23T21:29:11.218Z,19.99
2019-03-23T21:31:38.083Z,19.88
2019-03-23T21:34:04.969Z,19.85
2019-03-23T21:36:32.214Z,19.74
2019-03-23T21:38:59.182Z,19.71
2019-03-23T21:41:26.618Z,19.72
2019-03-23T21:43:53.550Z,19.69
2019-03-23T21:46:20.443Z,19.63
2019-03-23T21:48:47.765Z,19.57
2019-03-23T21:51:14.648Z,19.56
2019-03-23T21:53:42.161Z,19.56
2019-03-23T21:56:09.070Z,19.55
2019-03-23T21:58:36.029Z,19.55
2019-03-23T22:01:03.206Z,19.54
2019-03-23T22:03:30.564Z,19.54
2019-03-23T22:05:57.450Z,19.47
2019-03-23T22:08:24.349Z,19.47
2019-03-23T22:10:51.601Z,19.49
2019-03-23T22:13:18.940Z,19.50
2019-03-23T22:15:46.207Z,19.53
2019-03-23T22:18:13.559Z,19.59
2019-03-23T22:20:40.812Z,19.62
2019-03-23T22:23:08.057Z,19.66
2019-03-23T22:25:35.427Z,19.64
2019-03-23T22:28:02.395Z,19.63
2019-03-23T22:30:29.724Z,19.64
2019-03-23T22:32:56.709Z,19.65
2019-03-23T22:35:23.922Z,19.60
2019-03-23T22:37:51.171Z,19.54
2019-03-23T22:40:18.146Z,19.55
2019-03-23T22:42:45.092Z,19.59
2019-03-23T22:45:12.318Z,19.65
2019-03-23T22:47:40.330Z,19.74
2019-03-23T22:50:07.248Z,19.77
2019-03-23T22:52:34.183Z,19.72
2019-03-23T22:55:01.073Z,19.63
2019-03-23T22:57:28.035Z,19.63
2019-03-23T22:59:55.061Z,19.64
2019-03-23T23:02:22.273Z,19.67
2019-03-23T23:04:49.182Z,19.67
2019-03-23T23:07:16.483Z,19.65
2019-03-23T23:09:43.441Z,19.59
2019-03-23T23:12:10.397Z,19.59
2019-03-23T23:14:40.088Z,19.59
2019-03-23T23:17:07.309Z,19.60
2019-03-23T23:19:34.240Z,19.59
2019-03-23T23:22:01.139Z,19.55
2019-03-23T23:24:28.561Z,19.52
2019-03-23T23:26:55.436Z,19.49
2019-03-23T23:29:22.350Z,19.22
2019-03-23T23:31:49.606Z,19.58
2019-03-23T23:34:16.536Z,19.56
2019-03-23T23:36:43.708Z,19.51
2019-03-23T23:39:10.577Z,19.51
2019-03-23T23:41:37.797Z,19.58
2019-03-23T23:44:05.082Z,19.59
2019-03-23T23:46:32.413Z,19.57
2019-03-23T23:48:59.661Z,19.56
2019-03-23T23:51:26.556Z,19.59
2019-03-23T23:53:53.493Z,19.64
2019-03-23T23:56:20.389Z,19.65
2019-03-23T23:58:47.664Z,19.70
